Lathrop, CA (95330)

4:26 AM PDT on August 25, 2016 (GMT -0700)
Mossdale landing North | | Change Station

Elev 10 ft 37.82 °N, 121.31 °W | Updated 4 seconds ago

Clear
Clear
56.5 °F
Feels Like 56.5 °F
N
4.7
Wind Variable Wind from West

Today
High -- | Low -- °F
--% Chance of Precip.
Yesterday
High -- | Low -- °F
Precip. -- in
Pressure 29.89 in
Visibility 10.0 miles
Clouds Clear
Dew Point 54 °F
Humidity 93%
Rainfall 0.00 in
Snow Depth Not available.
6:29 AM 7:43 PM
Waning Gibbous, 46% visible
METAR KSCK 251055Z AUTO 03003KT 10SM CLR 13/10 A2989 RMK AO2 SLP122 T01330100
Pressure 29.89 in
Visibility 10.0 miles
Clouds Clear
Dew Point 54 °F
Humidity 93%
Rainfall 0.00 in
Snow Depth Not available.
6:29 AM 7:43 PM
Waning Gibbous, 46% visible
METAR KSCK 251055Z AUTO 03003KT 10SM CLR 13/10 A2989 RMK AO2 SLP122 T01330100

10-Day Weather Forecast

Almanac

Astronomy

Aug. 25, 2016 Rise Set
Actual Time
Civil Twilight
Nautical Twilight
Astronomical Twilight
Moon
Length of Visible Light
Length of Day
Tomorrow will be .
, % of the Moon is Illuminated

Today's Extremes

State Highs State Lows

Community

WunderPhotos

Upload Photos

1,934,822 photos uploaded!

WunderBlog® & News

Nearby

Air Quality

  Air Quality AQ Index Pollutant
Not available.

Snow Depth

Station Depth Elevation

Earthquake Activity

City Distance Mag. Time & Date
Minimum magnitude displayed is 2.5.

Coastal Water Temperatures

Place Temperature

Stations

Nearby Weather Stations

Station Location Temp. Windchill Dew Point Humidity Wind Precip. Elev Updated Type
                   

Watches & Warnings

There are currently no watches in effect.